createdAt,value
2023-01-21T05:15:05.321Z,-2.42
2023-01-21T05:16:04.346Z,-2.40
2023-01-21T05:17:04.329Z,-2.40
2023-01-21T05:18:04.272Z,-2.38
2023-01-21T05:19:04.248Z,-2.36
2023-01-21T05:20:04.241Z,-2.35
2023-01-21T05:21:04.230Z,-2.33
2023-01-21T05:22:04.204Z,-2.35
2023-01-21T05:23:04.210Z,-2.36
2023-01-21T05:24:04.192Z,-2.36
2023-01-21T05:25:04.168Z,-2.33
2023-01-21T05:26:04.158Z,-2.29
2023-01-21T05:27:04.132Z,-2.26
2023-01-21T05:28:04.159Z,-2.29
2023-01-21T05:29:04.123Z,-2.24
2023-01-21T05:30:04.126Z,-2.24
2023-01-21T05:31:04.235Z,-2.24
2023-01-21T05:32:04.094Z,-2.28
2023-01-21T05:33:04.088Z,-2.29
2023-01-21T05:34:04.076Z,-2.29
2023-01-21T05:35:04.042Z,-2.29
2023-01-21T05:36:04.045Z,-2.29
2023-01-21T05:37:04.020Z,-2.29
2023-01-21T05:38:04.028Z,-2.29
2023-01-21T05:39:03.996Z,-2.33
2023-01-21T05:40:03.980Z,-2.38
2023-01-21T05:41:03.965Z,-2.36
2023-01-21T05:42:03.957Z,-2.36
2023-01-21T05:43:03.960Z,-2.38
2023-01-21T05:44:03.943Z,-2.36
2023-01-21T05:45:03.904Z,-2.38
2023-01-21T05:46:04.041Z,-2.35
2023-01-21T05:47:03.902Z,-2.32
2023-01-21T05:48:03.893Z,-2.28
2023-01-21T05:49:03.874Z,-2.24
2023-01-21T05:50:03.885Z,-2.23
2023-01-21T05:51:03.891Z,-2.23
2023-01-21T05:52:03.850Z,-2.21
2023-01-21T05:53:03.830Z,-2.18
2023-01-21T05:54:03.813Z,-2.17
2023-01-21T05:55:03.797Z,-2.16
2023-01-21T05:56:03.839Z,-2.16
2023-01-21T05:57:03.760Z,-2.18
2023-01-21T05:58:03.790Z,-2.17
2023-01-21T05:59:03.743Z,-2.16
2023-01-21T06:00:03.740Z,-2.18
2023-01-21T06:01:03.719Z,-2.20
2023-01-21T06:02:03.765Z,-2.20
2023-01-21T06:03:03.700Z,-2.21
2023-01-21T06:04:03.704Z,-2.20
2023-01-21T06:05:03.684Z,-2.23
2023-01-21T06:06:03.680Z,-2.23
2023-01-21T06:07:03.642Z,-2.28
2023-01-21T06:08:03.647Z,-2.28
2023-01-21T06:09:03.643Z,-2.28
2023-01-21T06:10:03.676Z,-2.29
2023-01-21T06:11:03.589Z,-2.29
2023-01-21T06:12:03.599Z,-2.29
2023-01-21T06:13:03.559Z,-2.29
2023-01-21T06:14:03.597Z,-2.28
2023-01-21T06:15:03.543Z,-2.26
2023-01-21T06:16:03.590Z,-2.24
2023-01-21T06:17:03.525Z,-2.21
2023-01-21T06:18:03.514Z,-2.20
2023-01-21T06:19:03.522Z,-2.18
2023-01-21T06:20:03.484Z,-2.13
2023-01-21T06:21:03.512Z,-2.10
2023-01-21T06:22:03.462Z,-2.05
2023-01-21T06:23:03.443Z,-2.03
2023-01-21T06:24:03.443Z,-2.00
2023-01-21T06:25:03.435Z,-2.00
2023-01-21T06:26:03.404Z,-1.98
2023-01-21T06:27:03.403Z,-1.96
2023-01-21T06:28:03.378Z,-1.92
2023-01-21T06:29:03.399Z,-1.92
2023-01-21T06:30:03.363Z,-1.92
2023-01-21T06:31:03.436Z,-1.90
2023-01-21T06:32:03.519Z,-1.85
2023-01-21T06:33:03.321Z,-1.84
2023-01-21T06:34:03.321Z,-1.81
2023-01-21T06:35:03.301Z,-1.78
2023-01-21T06:36:03.280Z,-1.75
2023-01-21T06:37:03.280Z,-1.70
2023-01-21T06:38:03.249Z,-1.67
2023-01-21T06:39:03.269Z,-1.66
2023-01-21T06:40:03.230Z,-1.64
2023-01-21T06:41:03.258Z,-1.64
2023-01-21T06:42:03.203Z,-1.63
2023-01-21T06:43:03.212Z,-1.63
2023-01-21T06:44:03.199Z,-1.62
2023-01-21T06:45:03.180Z,-1.60
2023-01-21T06:46:03.201Z,-1.60
2023-01-21T06:47:03.332Z,-1.60
2023-01-21T06:48:03.135Z,-1.59
2023-01-21T06:49:03.141Z,-1.59
2023-01-21T06:50:03.107Z,-1.59
2023-01-21T06:51:03.138Z,-1.57
2023-01-21T06:52:03.090Z,-1.56
2023-01-21T06:53:03.070Z,-1.54
2023-01-21T06:54:03.078Z,-1.51
2023-01-21T06:55:03.064Z,-1.51
2023-01-21T06:56:03.049Z,-1.48
2023-01-21T06:57:03.049Z,-1.48
2023-01-21T06:58:03.002Z,-1.46
2023-01-21T06:59:03.015Z,-1.46
2023-01-21T07:00:03.009Z,-1.45
2023-01-21T07:01:02.974Z,-1.43
2023-01-21T07:02:02.954Z,-1.42
2023-01-21T07:03:02.969Z,-1.39
2023-01-21T07:04:02.968Z,-1.33
2023-01-21T07:05:02.995Z,-1.27
2023-01-21T07:06:02.910Z,-1.24
2023-01-21T07:07:02.904Z,-1.24
2023-01-21T07:08:02.882Z,-1.25
2023-01-21T07:09:02.896Z,-1.23
2023-01-21T07:10:02.872Z,-1.23
2023-01-21T07:11:02.856Z,-1.21
2023-01-21T07:12:02.830Z,-1.18
2023-01-21T07:13:02.822Z,-1.17
2023-01-21T07:14:02.822Z,-1.15
2023-01-21T07:15:02.814Z,-1.13
2023-01-21T07:16:04.668Z,-1.12
2023-01-21T07:17:02.784Z,-1.09
2023-01-21T07:18:02.750Z,-1.07
2023-01-21T07:19:02.771Z,-1.09
2023-01-21T07:20:02.729Z,-1.09
2023-01-21T07:21:02.741Z,-1.06
2023-01-21T07:22:02.718Z,-1.06
2023-01-21T07:23:02.693Z,-1.05
2023-01-21T07:24:02.723Z,-1.06
2023-01-21T07:25:02.696Z,-1.03
2023-01-21T07:26:02.660Z,-0.99
2023-01-21T07:27:02.668Z,-0.97
2023-01-21T07:28:02.637Z,-0.94
2023-01-21T07:29:02.648Z,-0.91
2023-01-21T07:30:02.633Z,-0.89
2023-01-21T07:31:02.699Z,-0.84
2023-01-21T07:32:02.676Z,-0.80
2023-01-21T07:33:02.576Z,-0.78
2023-01-21T07:34:02.592Z,-0.78
2023-01-21T07:35:02.557Z,-0.80
2023-01-21T07:36:02.535Z,-0.78
2023-01-21T07:37:02.540Z,-0.80
2023-01-21T07:38:02.536Z,-0.80
2023-01-21T07:39:02.512Z,-0.77
2023-01-21T07:40:02.484Z,-0.72
2023-01-21T07:41:02.485Z,-0.73
2023-01-21T07:42:02.452Z,-0.73
2023-01-21T07:43:02.445Z,-0.72
2023-01-21T07:44:02.456Z,-0.13
2023-01-21T07:45:02.425Z,1.07
2023-01-21T07:46:02.412Z,1.47
2023-01-21T07:47:02.413Z,1.04
2023-01-21T07:48:02.391Z,0.72
2023-01-21T07:49:02.400Z,0.36
2023-01-21T07:50:02.372Z,0.43
2023-01-21T07:51:02.379Z,0.64
2023-01-21T07:52:02.351Z,0.90
2023-01-21T07:53:02.340Z,0.98
2023-01-21T07:54:02.375Z,1.06
2023-01-21T07:55:02.301Z,1.07
2023-01-21T07:56:02.281Z,1.08
2023-01-21T07:57:02.258Z,1.15
2023-01-21T07:58:02.278Z,1.00
2023-01-21T07:59:02.268Z,0.90
2023-01-21T08:00:02.249Z,0.98
2023-01-21T08:01:02.235Z,1.26
2023-01-21T08:02:02.326Z,1.33
2023-01-21T08:03:02.196Z,1.18
2023-01-21T08:04:02.198Z,1.18
2023-01-21T08:05:02.180Z,1.32
2023-01-21T08:06:02.158Z,1.25
2023-01-21T08:07:02.150Z,0.96
2023-01-21T08:08:02.128Z,0.62
2023-01-21T08:09:02.156Z,0.38
2023-01-21T08:10:02.120Z,0.24
2023-01-21T08:11:02.100Z,0.12
2023-01-21T08:12:02.076Z,0.03
2023-01-21T08:13:02.147Z,-0.04
2023-01-21T08:14:02.056Z,-0.08
2023-01-21T08:15:02.038Z,-0.11
2023-01-21T08:16:02.071Z,-0.12
2023-01-21T08:17:02.006Z,-0.13
2023-01-21T08:18:02.009Z,-0.15
2023-01-21T08:19:02.045Z,-0.15
2023-01-21T08:20:01.985Z,-0.11
2023-01-21T08:21:01.965Z,-0.09
2023-01-21T08:22:01.984Z,-0.11
2023-01-21T08:23:01.974Z,-0.11
2023-01-21T08:24:01.934Z,-0.13
2023-01-21T08:25:01.933Z,-0.13
2023-01-21T08:26:01.903Z,-0.12
2023-01-21T08:27:01.882Z,-0.13
2023-01-21T08:28:01.883Z,-0.15
2023-01-21T08:29:01.883Z,-0.16
2023-01-21T08:30:01.890Z,-0.13
2023-01-21T08:31:01.851Z,-0.09
2023-01-21T08:32:01.813Z,-0.09
2023-01-21T08:33:01.819Z,-0.11
2023-01-21T08:34:01.812Z,-0.12
2023-01-21T08:35:01.774Z,-0.11
2023-01-21T08:36:01.770Z,-0.09
2023-01-21T08:37:01.744Z,-0.08
2023-01-21T08:38:01.733Z,-0.06
2023-01-21T08:39:01.742Z,-0.01
2023-01-21T08:40:01.709Z,-0.04
2023-01-21T08:41:01.689Z,0.00
2023-01-21T08:42:01.710Z,0.00
2023-01-21T08:43:01.678Z,-0.04
2023-01-21T08:44:01.659Z,-0.05
2023-01-21T08:45:01.674Z,0.00
2023-01-21T08:46:01.804Z,0.02
2023-01-21T08:47:01.622Z,0.02
2023-01-21T08:48:01.625Z,0.05
2023-01-21T08:49:01.597Z,0.05
2023-01-21T08:50:01.601Z,0.05
2023-01-21T08:51:01.641Z,0.07
2023-01-21T08:52:01.581Z,0.07
2023-01-21T08:53:01.567Z,0.09
2023-01-21T08:54:01.535Z,0.09
2023-01-21T08:55:01.547Z,0.12
2023-01-21T08:56:01.552Z,0.10
2023-01-21T08:57:01.487Z,0.12
2023-01-21T08:58:01.475Z,0.16
2023-01-21T08:59:01.468Z,0.18
2023-01-21T09:00:01.470Z,0.24
2023-01-21T09:01:01.487Z,0.25
2023-01-21T09:02:01.502Z,0.27
2023-01-21T09:03:01.432Z,0.28
2023-01-21T09:04:01.411Z,0.27
2023-01-21T09:05:01.419Z,0.28
2023-01-21T09:06:01.385Z,0.30
2023-01-21T09:07:01.384Z,0.33
2023-01-21T09:08:01.364Z,0.33
2023-01-21T09:09:01.336Z,0.34
2023-01-21T09:10:01.349Z,0.34
2023-01-21T09:11:01.341Z,0.36
2023-01-21T09:12:01.306Z,0.39
2023-01-21T09:13:01.293Z,0.42
2023-01-21T09:14:01.289Z,0.43
2023-01-21T09:15:01.282Z,0.48
2023-01-21T09:16:01.259Z,0.51
2023-01-21T09:17:01.242Z,0.53
2023-01-21T09:18:01.242Z,0.53
2023-01-21T09:19:01.222Z,0.58
2023-01-21T09:20:01.220Z,0.62
2023-01-21T09:21:01.189Z,0.65
2023-01-21T09:22:01.193Z,0.68
2023-01-21T09:23:01.175Z,0.70
2023-01-21T09:24:01.166Z,0.75
2023-01-21T09:25:01.159Z,0.75
2023-01-21T09:26:01.131Z,0.76
2023-01-21T09:27:01.124Z,0.71
2023-01-21T09:28:01.114Z,0.70
2023-01-21T09:29:01.107Z,0.70
2023-01-21T09:30:01.101Z,0.71
2023-01-21T09:31:01.147Z,0.70
2023-01-21T09:32:01.102Z,0.70
2023-01-21T09:33:01.037Z,0.71
2023-01-21T09:34:01.068Z,0.70
2023-01-21T09:35:01.035Z,0.72
2023-01-21T09:36:00.996Z,0.76
2023-01-21T09:37:00.990Z,0.79
2023-01-21T09:38:00.982Z,0.80
2023-01-21T09:39:00.953Z,0.80
2023-01-21T09:40:00.973Z,0.82
2023-01-21T09:41:00.936Z,0.82
2023-01-21T09:42:00.945Z,0.88
2023-01-21T09:43:00.906Z,0.90
2023-01-21T09:44:00.915Z,0.94
2023-01-21T09:45:00.900Z,0.94
2023-01-21T09:46:03.714Z,0.98
2023-01-21T09:47:00.902Z,1.01
2023-01-21T09:48:00.863Z,1.04
2023-01-21T09:49:00.844Z,1.04
2023-01-21T09:50:00.854Z,1.01
2023-01-21T09:51:00.858Z,1.01
2023-01-21T09:52:00.814Z,1.01
2023-01-21T09:53:00.784Z,0.98
2023-01-21T09:54:00.775Z,0.96
2023-01-21T09:55:00.773Z,1.00
2023-01-21T09:56:00.749Z,1.04
2023-01-21T09:57:00.751Z,1.03
2023-01-21T09:58:00.735Z,1.06
2023-01-21T09:59:00.722Z,1.06
2023-01-21T10:00:00.717Z,1.07
2023-01-21T10:01:00.767Z,1.08
2023-01-21T10:02:00.691Z,1.08
2023-01-21T10:03:00.659Z,1.10
2023-01-21T10:04:00.648Z,1.10
2023-01-21T10:05:00.649Z,1.10
2023-01-21T10:06:00.620Z,1.10
2023-01-21T10:07:00.610Z,1.12
2023-01-21T10:08:00.603Z,1.12
2023-01-21T10:09:00.579Z,1.16
2023-01-21T10:10:00.569Z,1.18
2023-01-21T10:11:00.571Z,1.19
2023-01-21T10:12:00.549Z,1.22
2023-01-21T10:13:00.559Z,1.25
2023-01-21T10:14:00.531Z,1.26
2023-01-21T10:15:00.517Z,1.29
2023-01-21T10:16:00.507Z,1.32
2023-01-21T10:17:00.541Z,1.34
2023-01-21T10:18:00.474Z,1.36
2023-01-21T10:19:00.460Z,1.34
2023-01-21T10:20:00.453Z,1.33
2023-01-21T10:21:00.457Z,1.34
2023-01-21T10:22:00.419Z,1.36
2023-01-21T10:23:00.412Z,1.39
2023-01-21T10:24:00.405Z,1.37
2023-01-21T10:25:00.375Z,1.34
2023-01-21T10:26:00.389Z,1.36
2023-01-21T10:27:00.344Z,1.36
2023-01-21T10:28:00.353Z,1.37
2023-01-21T10:29:00.324Z,1.39
2023-01-21T10:30:00.326Z,1.42
2023-01-21T10:31:00.408Z,1.42
2023-01-21T10:32:00.302Z,1.42
2023-01-21T10:33:00.284Z,1.40
2023-01-21T10:34:00.264Z,1.39
2023-01-21T10:35:00.255Z,1.37
2023-01-21T10:36:00.254Z,1.34
2023-01-21T10:37:00.237Z,1.36
2023-01-21T10:38:00.246Z,1.37
2023-01-21T10:39:00.210Z,1.39
2023-01-21T10:40:00.214Z,1.42
2023-01-21T10:41:00.181Z,1.40
2023-01-21T10:42:00.173Z,1.40
2023-01-21T10:43:00.152Z,1.40
2023-01-21T10:44:00.145Z,1.39
2023-01-21T10:45:00.146Z,1.42
2023-01-21T10:46:00.207Z,1.42
2023-01-21T10:47:00.112Z,1.43
2023-01-21T10:48:00.119Z,1.43
2023-01-21T10:49:00.086Z,1.42
2023-01-21T10:50:00.060Z,1.44
2023-01-21T10:51:00.133Z,1.44
2023-01-21T10:52:00.042Z,1.46
2023-01-21T10:53:00.035Z,1.47
2023-01-21T10:54:00.019Z,1.50
2023-01-21T10:55:00.039Z,1.50
2023-01-21T10:55:59.995Z,1.51
2023-01-21T10:57:00.011Z,1.52
2023-01-21T10:57:59.970Z,1.52
2023-01-21T10:59:00.012Z,1.54
2023-01-21T10:59:59.938Z,1.55
2023-01-21T11:00:59.969Z,1.51
2023-01-21T11:01:59.929Z,1.51
2023-01-21T11:02:59.926Z,1.51
2023-01-21T11:03:59.897Z,1.52
2023-01-21T11:04:59.949Z,1.57
2023-01-21T11:05:59.907Z,1.55
2023-01-21T11:06:59.895Z,1.57
2023-01-21T11:07:59.856Z,1.57
2023-01-21T11:08:59.921Z,1.54
2023-01-21T11:09:59.867Z,1.55
2023-01-21T11:10:59.830Z,1.57
2023-01-21T11:11:59.806Z,1.58
2023-01-21T11:12:59.813Z,1.57
2023-01-21T11:13:59.787Z,1.52
2023-01-21T11:14:59.776Z,1.51
2023-01-21T11:15:59.838Z,1.51
2023-01-21T11:16:59.754Z,1.50
2023-01-21T11:17:59.759Z,1.47
2023-01-21T11:18:59.773Z,1.51
2023-01-21T11:19:59.743Z,1.52
2023-01-21T11:20:59.716Z,1.47
2023-01-21T11:21:59.682Z,1.51
2023-01-21T11:22:59.653Z,1.51
2023-01-21T11:23:59.649Z,1.54
2023-01-21T11:24:59.649Z,1.55
2023-01-21T11:25:59.662Z,1.54
2023-01-21T11:26:59.625Z,1.55
2023-01-21T11:27:59.608Z,1.58
2023-01-21T11:28:59.580Z,1.58
2023-01-21T11:29:59.712Z,1.61
2023-01-21T11:30:59.702Z,1.62
2023-01-21T11:31:59.709Z,1.68
2023-01-21T11:32:59.537Z,1.71
2023-01-21T11:33:59.540Z,1.71
2023-01-21T11:34:59.520Z,1.72
2023-01-21T11:35:59.529Z,1.71
2023-01-21T11:36:59.483Z,1.72
2023-01-21T11:37:59.488Z,1.72
2023-01-21T11:38:59.459Z,1.72
2023-01-21T11:39:59.505Z,1.73
2023-01-21T11:40:59.450Z,1.75
2023-01-21T11:41:59.428Z,1.75
2023-01-21T11:42:59.407Z,1.78
2023-01-21T11:43:59.398Z,1.78
2023-01-21T11:44:59.377Z,1.79
2023-01-21T11:45:59.416Z,1.80
2023-01-21T11:46:59.385Z,1.80
2023-01-21T11:47:59.358Z,1.80
2023-01-21T11:48:59.360Z,1.79
2023-01-21T11:49:59.316Z,1.80
2023-01-21T11:50:59.370Z,1.79
2023-01-21T11:51:59.340Z,1.80
2023-01-21T11:53:01.800Z,1.82
2023-01-21T11:53:59.286Z,1.83
2023-01-21T11:54:59.265Z,1.80
2023-01-21T11:55:59.245Z,1.82
2023-01-21T11:56:59.259Z,1.79
2023-01-21T11:57:59.231Z,1.78
2023-01-21T11:58:59.182Z,1.75
2023-01-21T11:59:59.220Z,1.76
2023-01-21T12:00:59.175Z,1.73
2023-01-21T12:01:59.205Z,1.73
2023-01-21T12:02:59.236Z,1.73
2023-01-21T12:03:59.172Z,1.75
2023-01-21T12:04:59.141Z,1.73
2023-01-21T12:05:59.124Z,1.73
2023-01-21T12:06:59.104Z,1.76
2023-01-21T12:07:59.105Z,1.78
2023-01-21T12:08:59.078Z,1.80
2023-01-21T12:09:59.052Z,1.79
2023-01-21T12:10:59.051Z,1.80
2023-01-21T12:11:59.072Z,1.83
2023-01-21T12:12:59.021Z,1.89
2023-01-21T12:14:49.540Z,1.97
2023-01-21T12:15:49.518Z,1.98
2023-01-21T12:16:49.500Z,2.01
2023-01-21T12:17:49.470Z,2.01
2023-01-21T12:18:49.472Z,1.98
2023-01-21T12:19:49.480Z,2.01
2023-01-21T12:20:49.420Z,2.06
2023-01-21T12:21:49.502Z,2.09
2023-01-21T12:22:49.451Z,2.12
2023-01-21T12:23:49.402Z,2.13
2023-01-21T12:24:49.378Z,2.15
2023-01-21T12:25:49.348Z,2.12
2023-01-21T12:26:49.399Z,2.15
2023-01-21T12:27:49.357Z,2.13
2023-01-21T12:28:49.337Z,2.16
2023-01-21T12:29:49.337Z,2.16
2023-01-21T12:30:49.373Z,2.19
2023-01-21T12:31:49.387Z,2.16
2023-01-21T12:32:49.307Z,2.16
2023-01-21T12:33:49.300Z,2.16
2023-01-21T12:34:49.297Z,2.17
2023-01-21T12:35:49.255Z,2.19
2023-01-21T12:36:49.285Z,2.19
2023-01-21T12:37:49.221Z,2.19
2023-01-21T12:38:49.205Z,2.19
2023-01-21T12:39:49.193Z,2.15
2023-01-21T12:40:49.197Z,2.12
2023-01-21T12:41:49.175Z,2.12
2023-01-21T12:42:49.161Z,2.15
2023-01-21T12:43:49.136Z,2.16
2023-01-21T12:44:49.128Z,2.13
2023-01-21T12:45:49.103Z,2.15
2023-01-21T12:46:49.137Z,2.13
2023-01-21T12:47:49.093Z,2.10
2023-01-21T12:48:49.054Z,2.09
2023-01-21T12:49:49.049Z,2.10
2023-01-21T12:50:49.056Z,2.13
2023-01-21T12:51:49.045Z,2.15
2023-01-21T12:52:49.038Z,2.16
2023-01-21T12:53:49.013Z,2.19
2023-01-21T12:54:49.014Z,2.19
2023-01-21T12:55:49.003Z,2.16
2023-01-21T12:56:48.999Z,2.16
2023-01-21T12:57:48.952Z,2.16
2023-01-21T12:58:48.955Z,2.16
2023-01-21T12:59:48.934Z,2.17
2023-01-21T13:00:48.963Z,2.13
2023-01-21T13:01:48.942Z,2.12
2023-01-21T13:02:48.922Z,2.09
2023-01-21T13:03:48.891Z,2.09
2023-01-21T13:04:48.881Z,2.04
2023-01-21T13:05:48.850Z,2.08
2023-01-21T13:06:54.220Z,2.06
2023-01-21T13:07:49.884Z,2.08
2023-01-21T13:08:48.842Z,2.08
2023-01-21T13:09:48.829Z,2.08
2023-01-21T13:10:48.802Z,2.06
2023-01-21T13:11:48.778Z,2.04
2023-01-21T13:12:48.778Z,2.02
2023-01-21T13:13:48.750Z,1.99
2023-01-21T13:14:48.746Z,1.97
2023-01-21T13:15:48.728Z,1.94
2023-01-21T13:16:48.717Z,1.93
2023-01-21T13:17:48.746Z,1.93
2023-01-21T13:18:48.701Z,1.91
2023-01-21T13:19:48.677Z,1.90
2023-01-21T13:20:48.658Z,1.91
2023-01-21T13:21:48.640Z,1.93
2023-01-21T13:22:48.659Z,1.91
2023-01-21T13:23:48.637Z,1.91
2023-01-21T13:24:48.606Z,1.89
2023-01-21T13:25:48.626Z,1.89
2023-01-21T13:26:48.576Z,1.90
2023-01-21T13:27:48.584Z,1.90
2023-01-21T13:28:48.566Z,1.93
2023-01-21T13:29:48.542Z,1.91
2023-01-21T13:30:48.568Z,1.94
2023-01-21T13:31:48.537Z,1.94
2023-01-21T13:32:48.531Z,1.98
2023-01-21T13:33:48.494Z,1.99
2023-01-21T13:34:48.474Z,2.01
2023-01-21T13:35:48.453Z,2.01
2023-01-21T13:36:48.474Z,2.04
2023-01-21T13:37:48.434Z,2.06
2023-01-21T13:38:48.433Z,2.08
2023-01-21T13:39:48.417Z,2.09
2023-01-21T13:40:48.394Z,2.12
2023-01-21T13:41:48.382Z,2.10
2023-01-21T13:42:48.395Z,2.10
2023-01-21T13:43:48.362Z,2.09
2023-01-21T13:44:48.366Z,2.10
2023-01-21T13:45:48.422Z,2.12
2023-01-21T13:46:48.343Z,2.10
2023-01-21T13:47:48.311Z,2.10
2023-01-21T13:48:48.294Z,2.12
2023-01-21T13:49:48.289Z,2.13
2023-01-21T13:50:48.291Z,2.13
2023-01-21T13:51:48.254Z,2.15
2023-01-21T13:52:48.259Z,2.17
2023-01-21T13:53:48.229Z,2.13
2023-01-21T13:54:48.229Z,2.13
2023-01-21T13:55:48.212Z,2.15
2023-01-21T13:56:48.216Z,2.16
2023-01-21T13:57:48.203Z,2.17
2023-01-21T13:58:48.166Z,2.17
2023-01-21T13:59:48.149Z,2.17
2023-01-21T14:00:48.155Z,2.17
2023-01-21T14:01:48.145Z,2.15
2023-01-21T14:02:48.140Z,2.10
2023-01-21T14:03:48.101Z,2.06
2023-01-21T14:04:48.090Z,2.04
2023-01-21T14:05:48.068Z,2.06
2023-01-21T14:06:48.068Z,2.08
2023-01-21T14:07:48.075Z,2.06
2023-01-21T14:08:48.050Z,2.09
2023-01-21T14:09:48.017Z,2.10
2023-01-21T14:10:48.037Z,2.10
2023-01-21T14:11:48.071Z,2.04
2023-01-21T14:12:48.023Z,2.06
2023-01-21T14:13:47.982Z,2.06
2023-01-21T14:14:47.987Z,2.02
2023-01-21T14:15:47.955Z,2.04
2023-01-21T14:16:48.018Z,2.04
2023-01-21T14:17:47.944Z,2.08
2023-01-21T14:18:47.919Z,2.09
2023-01-21T14:19:47.895Z,2.09
2023-01-21T14:20:47.892Z,2.12
2023-01-21T14:21:47.866Z,2.12
2023-01-21T14:22:47.875Z,2.09
2023-01-21T14:23:47.842Z,2.08
2023-01-21T14:24:47.853Z,2.09
2023-01-21T14:25:47.818Z,2.09
2023-01-21T14:26:47.858Z,2.10
2023-01-21T14:27:47.800Z,2.09
2023-01-21T14:28:47.850Z,2.08
2023-01-21T14:29:47.822Z,2.06
2023-01-21T14:30:47.827Z,2.06
2023-01-21T14:31:47.801Z,2.01
2023-01-21T14:32:47.753Z,2.04
2023-01-21T14:33:47.713Z,2.06
2023-01-21T14:34:47.736Z,2.08
2023-01-21T14:35:47.715Z,2.09
2023-01-21T14:36:47.680Z,2.09
2023-01-21T14:37:47.677Z,2.08
2023-01-21T14:38:47.679Z,2.10
2023-01-21T14:39:47.643Z,2.09
2023-01-21T14:40:47.634Z,2.10
2023-01-21T14:41:47.617Z,2.10
2023-01-21T14:42:47.663Z,2.12
2023-01-21T14:43:47.603Z,2.13
2023-01-21T14:44:47.578Z,2.10
2023-01-21T14:45:47.614Z,2.13
2023-01-21T14:46:47.550Z,2.13
2023-01-21T14:47:47.553Z,2.13
2023-01-21T14:48:47.556Z,2.10
2023-01-21T14:49:47.534Z,2.12
2023-01-21T14:50:47.633Z,2.10
2023-01-21T14:51:47.505Z,2.12
2023-01-21T14:52:47.478Z,2.09
2023-01-21T14:53:47.551Z,2.09
2023-01-21T14:54:47.480Z,2.09
2023-01-21T14:55:47.440Z,2.09
2023-01-21T14:56:47.448Z,2.08
2023-01-21T14:57:47.409Z,2.06
2023-01-21T14:58:47.428Z,2.02
2023-01-21T14:59:47.394Z,2.06
2023-01-21T15:00:47.473Z,2.06
2023-01-21T15:01:47.370Z,2.06
2023-01-21T15:02:47.455Z,2.06
2023-01-21T15:03:47.344Z,2.04
2023-01-21T15:04:47.333Z,2.04
2023-01-21T15:05:47.317Z,2.08
2023-01-21T15:06:47.309Z,2.09
2023-01-21T15:07:47.312Z,2.08
2023-01-21T15:08:47.287Z,2.06
2023-01-21T15:09:47.286Z,2.04
2023-01-21T15:10:47.255Z,2.01
2023-01-21T15:11:47.249Z,2.04
2023-01-21T15:12:47.226Z,2.08
2023-01-21T15:13:47.218Z,2.04
2023-01-21T15:14:47.195Z,2.06
2023-01-21T15:15:47.183Z,2.08
2023-01-21T15:16:47.220Z,2.06
2023-01-21T15:17:47.165Z,2.02
2023-01-21T15:18:47.160Z,2.02
2023-01-21T15:19:47.143Z,2.04
2023-01-21T15:20:47.136Z,2.01
2023-01-21T15:21:47.111Z,2.01
2023-01-21T15:22:47.139Z,1.99
2023-01-21T15:23:47.092Z,1.94
2023-01-21T15:24:47.110Z,1.93
2023-01-21T15:25:47.069Z,1.90
2023-01-21T15:26:47.050Z,1.87
2023-01-21T15:27:47.045Z,1.82
2023-01-21T15:28:47.048Z,1.79
2023-01-21T15:29:47.008Z,1.78
2023-01-21T15:30:58.156Z,1.78
2023-01-21T15:31:48.173Z,1.75
2023-01-21T15:32:47.019Z,1.75
2023-01-21T15:33:46.999Z,1.75
2023-01-21T15:34:46.942Z,1.72
2023-01-21T15:35:46.943Z,1.71
2023-01-21T15:36:46.926Z,1.69
2023-01-21T15:37:46.919Z,1.69
2023-01-21T15:38:46.905Z,1.68
2023-01-21T15:39:46.883Z,1.65
2023-01-21T15:40:46.876Z,1.64
2023-01-21T15:41:46.863Z,1.62
2023-01-21T15:42:46.864Z,1.64
2023-01-21T15:43:46.838Z,1.64
2023-01-21T15:44:46.840Z,1.65
2023-01-21T15:45:46.928Z,1.64
2023-01-21T15:46:46.798Z,1.61
2023-01-21T15:47:46.777Z,1.58
2023-01-21T15:48:46.780Z,1.55
2023-01-21T15:49:46.759Z,1.52
2023-01-21T15:50:46.822Z,1.51
2023-01-21T15:51:46.750Z,1.52
2023-01-21T15:52:46.713Z,1.50
2023-01-21T15:53:46.713Z,1.47
2023-01-21T15:54:46.694Z,1.43
2023-01-21T15:55:46.673Z,1.39
2023-01-21T15:56:46.680Z,1.36
2023-01-21T15:57:46.657Z,1.34
2023-01-21T15:58:46.660Z,1.28
2023-01-21T15:59:46.626Z,1.25
2023-01-21T16:00:46.614Z,1.21
2023-01-21T16:01:46.660Z,1.21
2023-01-21T16:02:46.602Z,1.19
2023-01-21T16:03:46.603Z,1.16
2023-01-21T16:04:46.565Z,1.12
2023-01-21T16:05:46.582Z,1.08
2023-01-21T16:06:46.534Z,1.04
2023-01-21T16:07:46.529Z,1.01
2023-01-21T16:08:46.520Z,0.98
2023-01-21T16:09:46.501Z,0.97
2023-01-21T16:10:46.482Z,0.97
2023-01-21T16:11:46.493Z,0.97
2023-01-21T16:12:46.457Z,0.94
2023-01-21T16:13:46.460Z,0.92
2023-01-21T16:14:46.427Z,0.89
2023-01-21T16:15:46.448Z,0.89
2023-01-21T16:16:46.420Z,0.88
2023-01-21T16:17:46.418Z,0.83
2023-01-21T16:18:46.379Z,0.80
2023-01-21T16:19:46.379Z,0.78
2023-01-21T16:20:46.360Z,0.75
2023-01-21T16:21:46.347Z,0.72
2023-01-21T16:22:46.328Z,0.71
2023-01-21T16:23:46.334Z,0.72
2023-01-21T16:24:46.367Z,0.71
2023-01-21T16:25:46.286Z,0.71
2023-01-21T16:26:46.289Z,0.70
2023-01-21T16:27:46.303Z,0.68
2023-01-21T16:28:46.263Z,0.65
2023-01-21T16:29:46.278Z,0.65
2023-01-21T16:30:46.306Z,0.67
2023-01-21T16:31:46.291Z,0.68
2023-01-21T16:32:46.208Z,0.70
2023-01-21T16:33:46.196Z,0.71
2023-01-21T16:34:46.195Z,0.72
2023-01-21T16:35:46.252Z,0.71
2023-01-21T16:36:46.154Z,0.72
2023-01-21T16:37:46.211Z,0.70
2023-01-21T16:38:46.137Z,0.71
2023-01-21T16:39:46.139Z,0.75
2023-01-21T16:40:46.103Z,0.76
2023-01-21T16:41:46.113Z,0.78
2023-01-21T16:42:46.088Z,0.78
2023-01-21T16:43:46.068Z,0.76
2023-01-21T16:44:46.074Z,0.76
2023-01-21T16:45:46.072Z,0.72
2023-01-21T16:46:46.022Z,0.72
2023-01-21T16:47:46.012Z,0.76
2023-01-21T16:48:46.011Z,0.76
2023-01-21T16:49:46.000Z,0.76
2023-01-21T16:50:46.011Z,0.76
2023-01-21T16:51:45.965Z,0.76
2023-01-21T16:52:45.950Z,0.75
2023-01-21T16:53:45.951Z,0.76
2023-01-21T16:54:45.949Z,0.78
2023-01-21T16:55:45.936Z,0.80
2023-01-21T16:56:45.902Z,0.79
2023-01-21T16:57:45.918Z,0.79
2023-01-21T16:58:45.880Z,0.79
2023-01-21T16:59:45.882Z,0.83
2023-01-21T17:00:45.849Z,0.83
2023-01-21T17:01:45.904Z,0.83
2023-01-21T17:02:45.874Z,0.85
2023-01-21T17:03:45.858Z,0.88
2023-01-21T17:04:45.817Z,0.89
2023-01-21T17:05:45.792Z,0.90
2023-01-21T17:06:45.792Z,0.97
2023-01-21T17:07:45.770Z,0.98
2023-01-21T17:08:45.757Z,0.97
2023-01-21T17:09:45.739Z,0.96
2023-01-21T17:10:45.727Z,0.97
2023-01-21T17:11:45.746Z,0.98
2023-01-21T17:12:45.697Z,1.00
2023-01-21T17:13:45.696Z,0.97
2023-01-21T17:14:45.710Z,1.00
2023-01-21T17:15:45.703Z,1.01
2023-01-21T17:16:45.667Z,1.04
2023-01-21T17:17:45.636Z,1.06
2023-01-21T17:18:45.650Z,1.10
2023-01-21T17:19:45.636Z,1.12
2023-01-21T17:20:45.617Z,1.15
2023-01-21T17:21:45.585Z,1.16
2023-01-21T17:22:45.574Z,1.18
2023-01-21T17:23:45.553Z,1.21
2023-01-21T17:24:45.567Z,1.22
2023-01-21T17:25:45.532Z,1.25
2023-01-21T17:26:45.522Z,1.28
2023-01-21T17:27:45.504Z,1.26
2023-01-21T17:28:45.519Z,1.29
2023-01-21T17:29:45.602Z,1.33
2023-01-21T17:30:45.535Z,1.33
2023-01-21T17:31:45.543Z,1.34
2023-01-21T17:32:45.459Z,1.36
2023-01-21T17:33:45.443Z,1.34
2023-01-21T17:34:45.433Z,1.33
2023-01-21T17:35:45.420Z,1.32
2023-01-21T17:36:45.408Z,1.34
2023-01-21T17:37:45.393Z,1.33
2023-01-21T17:38:45.376Z,1.33
2023-01-21T17:39:45.369Z,1.29
2023-01-21T17:40:45.386Z,1.29
2023-01-21T17:41:46.575Z,1.29
2023-01-21T17:42:45.343Z,1.26
2023-01-21T17:43:45.331Z,1.24
2023-01-21T17:44:45.360Z,1.22
2023-01-21T17:45:45.281Z,1.19
2023-01-21T17:46:45.333Z,1.22
2023-01-21T17:48:06.979Z,1.19
2023-01-21T17:48:46.256Z,1.18
2023-01-21T17:49:45.236Z,1.18
2023-01-21T17:50:45.257Z,1.18
2023-01-21T17:51:45.240Z,1.19
2023-01-21T17:52:45.199Z,1.19
2023-01-21T17:53:46.376Z,1.21
2023-01-21T17:54:45.178Z,1.19
2023-01-21T17:55:45.169Z,1.18
2023-01-21T17:56:45.186Z,1.18
2023-01-21T17:57:45.117Z,1.19
2023-01-21T17:58:45.118Z,1.19
2023-01-21T17:59:45.882Z,1.16
2023-01-21T18:00:45.099Z,1.15
2023-01-21T18:01:45.089Z,1.14
2023-01-21T18:02:45.085Z,1.12
2023-01-21T18:03:45.046Z,1.15
2023-01-21T18:04:45.058Z,1.15
2023-01-21T18:05:45.026Z,1.15
2023-01-21T18:06:45.018Z,1.15
2023-01-21T18:07:45.003Z,1.18
2023-01-21T18:08:44.994Z,1.16
2023-01-21T18:09:44.986Z,1.16
2023-01-21T18:10:44.963Z,1.18
2023-01-21T18:11:45.655Z,1.16
2023-01-21T18:12:44.958Z,1.16
2023-01-21T18:13:44.928Z,1.12
2023-01-21T18:14:44.913Z,1.10
2023-01-21T18:15:44.941Z,1.12
2023-01-21T18:16:44.894Z,1.14
2023-01-21T18:17:44.873Z,1.12
2023-01-21T18:18:51.922Z,1.12
2023-01-21T18:19:44.957Z,1.12
2023-01-21T18:20:44.829Z,1.10
2023-01-21T18:21:44.831Z,1.12
2023-01-21T18:22:44.801Z,1.14
2023-01-21T18:23:44.832Z,1.12
2023-01-21T18:24:44.800Z,1.14
2023-01-21T18:25:44.777Z,1.12
2023-01-21T18:26:44.761Z,1.10
2023-01-21T18:27:44.750Z,1.07